Time;durP1;ratioP1;P1;durP2;ratioP2;P2;SDS_P1;SDS_P2;PMS_P1;PMS_P2;Temp;Humidity;BMP_temperature;BMP_pressure;BME280_temperature;BME280_humidity;BME280_pressure;Samples;Min_cycle;Max_cycle;Signal;HPM_P1;HPM_P2
2022/10/25 04:44:02;;;;;;;15.23;11.90;;;;;;;8.28;100.00;100303.12;1764458;81;21749;-46
2022/10/25 04:46:30;;;;;;;21.37;12.68;;;;;;;8.30;100.00;100304.90;1688000;82;21066;-39
2022/10/25 04:48:56;;;;;;;17.90;12.00;;;;;;;8.33;100.00;100298.39;1684306;84;21039;-46
2022/10/25 04:51:23;;;;;;;20.25;12.85;;;;;;;8.35;100.00;100301.47;1684615;82;21010;-45
2022/10/25 04:53:53;;;;;;;22.93;14.03;;;;;;;8.37;100.00;100299.78;1689387;82;21156;-39
2022/10/25 04:56:19;;;;;;;18.90;13.70;;;;;;;8.39;100.00;100301.95;1687651;82;21040;-38
2022/10/25 04:58:46;;;;;;;20.90;14.55;;;;;;;8.41;100.00;100299.39;1694781;84;21124;-47
2022/10/25 05:01:15;;;;;;;20.97;13.25;;;;;;;8.42;100.00;100295.48;1701822;82;21042;-46
2022/10/25 05:03:41;;;;;;;20.45;12.78;;;;;;;8.41;100.00;100297.65;1690153;83;21051;-47
2022/10/25 05:06:14;;;;;;;21.70;12.43;;;;;;;8.41;100.00;100300.69;1684278;84;21137;-39
2022/10/25 05:08:45;;;;;;;22.27;12.85;;;;;;;8.41;100.00;100298.08;1683360;84;21044;-46
2022/10/25 05:11:13;;;;;;;19.95;13.50;;;;;;;8.42;100.00;100308.52;1683589;84;21571;-39
2022/10/25 05:13:41;;;;;;;21.50;14.87;;;;;;;8.44;100.00;100311.13;1684536;84;21107;-39
2022/10/25 05:16:22;;;;;;;24.63;13.32;;;;;;;8.46;100.00;100315.91;1713865;82;21060;-39
2022/10/25 05:18:56;;;;;;;17.62;12.55;;;;;;;8.48;100.00;100319.00;1698614;84;21095;-40
2022/10/25 05:21:27;;;;;;;17.02;12.40;;;;;;;8.51;100.00;100318.14;1686388;83;21598;-46
2022/10/25 05:23:53;;;;;;;20.32;13.08;;;;;;;8.52;100.00;100318.57;1704010;84;21553;-46
2022/10/25 05:26:20;;;;;;;17.82;12.90;;;;;;;8.54;100.00;100324.70;1687847;83;21020;-46
2022/10/25 05:28:48;;;;;;;19.45;14.20;;;;;;;8.55;100.00;100318.62;1681689;83;21395;-39
2022/10/25 05:31:19;;;;;;;16.55;12.05;;;;;;;8.58;100.00;100319.05;1685421;84;21575;-46
2022/10/25 05:33:48;;;;;;;17.67;13.68;;;;;;;8.62;100.00;100320.84;1683167;83;21013;-38
2022/10/25 05:36:14;;;;;;;16.37;12.78;;;;;;;8.69;100.00;100325.23;1694905;82;20999;-40
2022/10/25 05:38:42;;;;;;;21.35;13.60;;;;;;;8.75;100.00;100323.55;1697993;82;21043;-40
2022/10/25 05:41:10;;;;;;;20.17;13.68;;;;;;;8.82;100.00;100320.58;1681932;84;20992;-45
2022/10/25 05:43:39;;;;;;;22.50;13.78;;;;;;;8.88;100.00;100318.02;1691437;82;21618;-45
2022/10/25 05:57:15;;;;;;;25.40;16.60;;;;;;;9.23;100.00;100314.77;1628016;85;21079;-44
2022/10/25 05:59:42;;;;;;;22.67;16.67;;;;;;;9.33;100.00;100316.13;1640029;86;21078;-44
2022/10/25 08:25:48;;;;;;;24.63;21.15;;;;;;;13.10;100.00;100268.90;1798725;78;21083;-46
2022/10/25 08:28:15;;;;;;;19.98;17.77;;;;;;;13.15;100.00;100268.86;1800775;79;21032;-38
2022/10/25 08:30:42;;;;;;;21.40;19.12;;;;;;;13.20;100.00;100263.11;1798520;78;21041;-45
2022/10/25 08:33:09;;;;;;;19.25;16.85;;;;;;;13.26;100.00;100263.08;1826721;78;21082;-46
2022/10/25 08:35:36;;;;;;;20.05;15.90;;;;;;;13.34;100.00;100263.01;1821902;78;21494;-37
2022/10/25 08:38:03;;;;;;;20.85;16.35;;;;;;;13.45;100.00;100263.72;1815149;78;21024;-38
2022/10/25 08:41:09;;;;;;;20.23;15.65;;;;;;;13.56;100.00;100265.77;1812930;78;21548;-38
2022/10/25 08:43:59;;;;;;;17.65;13.25;;;;;;;13.64;100.00;100257.81;1812871;78;21081;-46
2022/10/25 08:46:42;;;;;;;18.15;14.60;;;;;;;13.74;100.00;100263.34;1810705;77;21006;-46
2022/10/25 08:53:29;;;;;;;19.82;14.43;;;;;;;13.81;100.00;100259.77;1814190;77;21084;-47
2022/10/25 08:55:56;;;;;;;17.10;13.53;;;;;;;13.90;100.00;100253.50;1819626;77;21056;-47
2022/10/25 08:58:34;;;;;;;22.07;13.60;;;;;;;13.97;100.00;100249.43;1833442;77;21016;-38
2022/10/25 09:01:07;;;;;;;18.62;13.93;;;;;;;14.05;100.00;100254.59;1817015;78;21100;-38
2022/10/25 09:03:35;;;;;;;16.48;13.15;;;;;;;14.12;100.00;100257.55;1785591;79;21036;-39
2022/10/25 09:06:35;;;;;;;15.50;12.98;;;;;;;14.19;100.00;100257.02;1803822;78;21616;-38
2022/10/25 09:09:30;;;;;;;17.12;12.73;;;;;;;14.22;100.00;100254.34;1826948;77;21099;-39
2022/10/25 09:12:24;;;;;;;20.55;14.85;;;;;;;14.24;100.00;100255.18;1818569;77;21706;-40
2022/10/25 09:15:01;;;;;;;17.55;13.90;;;;;;;14.28;100.00;100255.56;1784734;78;21037;-40
2022/10/25 09:17:48;;;;;;;19.80;13.88;;;;;;;14.34;100.00;100244.94;1824766;77;21068;-47
2022/10/25 09:20:33;;;;;;;20.60;13.30;;;;;;;14.42;100.00;100242.17;1825757;77;21030;-46
2022/10/25 09:23:14;;;;;;;15.65;12.73;;;;;;;14.50;100.00;100239.88;1803347;77;21056;-41
2022/10/25 09:33:59;;;;;;;17.05;12.10;;;;;;;14.69;100.00;100239.11;1800402;78;21729;-47
2022/10/25 09:36:28;;;;;;;16.75;12.37;;;;;;;14.73;100.00;100235.98;1798462;78;21003;-46
2022/10/25 09:38:59;;;;;;;17.98;11.88;;;;;;;14.75;100.00;100235.50;1804050;78;21654;-39
2022/10/25 09:41:39;;;;;;;14.13;11.43;;;;;;;14.78;100.00;100226.21;1797704;79;21045;-40
2022/10/25 09:44:40;;;;;;;16.20;12.50;;;;;;;14.82;100.00;100220.00;1783086;78;21522;-47
2022/10/25 09:47:40;;;;;;;17.52;12.07;;;;;;;14.89;100.00;100219.84;1783601;78;21050;-48
2022/10/25 09:50:31;;;;;;;14.30;12.53;;;;;;;14.93;100.00;100205.31;1813076;79;21053;-48
2022/10/25 09:53:11;;;;;;;14.87;12.18;;;;;;;14.95;100.00;100204.83;1811239;77;21121;-48
2022/10/25 09:55:46;;;;;;;18.95;12.43;;;;;;;14.94;100.00;100200.47;1809848;77;21037;-48
2022/10/25 09:58:32;;;;;;;17.42;11.15;;;;;;;14.95;100.00;100197.79;1811307;79;22139;-47
2022/10/25 10:01:09;;;;;;;15.85;12.30;;;;;;;14.97;100.00;100195.15;1804025;77;21038;-47
2022/10/25 10:03:35;;;;;;;18.62;13.13;;;;;;;14.98;100.00;100189.84;1810791;77;20965;-48
2022/10/25 10:06:18;;;;;;;16.23;12.53;;;;;;;14.98;100.00;100188.53;1808505;77;21598;-47
2022/10/25 10:08:55;;;;;;;15.45;11.68;;;;;;;15.01;100.00;100191.08;1711637;82;21121;-47
2022/10/25 10:11:22;;;;;;;15.50;11.65;;;;;;;15.07;100.00;100186.14;1718372;82;21028;-38
2022/10/25 10:14:00;;;;;;;12.37;10.80;;;;;;;15.19;100.00;100179.34;1681781;82;21033;-40
2022/10/25 10:16:37;;;;;;;14.00;10.15;;;;;;;15.33;100.00;100181.22;1702558;82;21508;-40
2022/10/25 10:19:21;;;;;;;18.98;11.38;;;;;;;15.46;100.00;100175.22;1714765;80;21197;-47
2022/10/25 10:21:54;;;;;;;18.17;12.23;;;;;;;15.53;100.00;100169.36;1713073;82;21029;-48
2022/10/25 10:24:26;;;;;;;13.68;10.68;;;;;;;15.58;100.00;100162.22;1734634;82;21697;-40
2022/10/25 10:26:58;;;;;;;16.48;11.63;;;;;;;15.57;100.00;100166.63;1721550;81;21063;-40
2022/10/25 10:29:27;;;;;;;12.50;10.35;;;;;;;15.53;100.00;100156.17;1715333;80;21068;-39
2022/10/25 10:32:00;;;;;;;13.18;11.78;;;;;;;15.45;100.00;100164.27;1728985;82;21001;-48
2022/10/25 10:34:42;;;;;;;16.50;10.90;;;;;;;15.40;100.00;100171.41;1707088;81;21074;-48
2022/10/25 10:37:15;;;;;;;15.23;10.72;;;;;;;15.33;100.00;100164.08;1731299;82;20974;-40
2022/10/25 10:39:53;;;;;;;16.40;11.78;;;;;;;15.26;100.00;100170.39;1727441;82;21076;-41
